BIENVENIDO A Fly Ecuador Virtual

Fly Ecuador Virtual es una organización creada con el fin de brindar una plataforma que permita a los pilotos virtuales, principalmente ecuatorianos, tener un lugar donde registrar sus horas de vuelo, sus certificados de conocimiento adquiridos, las rutas que han volado y los destinos que han visitado. Así mismo, se busca ayudar a todos los pilotos a expandir su conocimiento sobre el mundo de la aviación real y virtual por medio de publicaciones, foros y cursos en línea.

A diferencia de las aerolíneas virtuales tradicionales, Fly Ecuador Virtual no simula las operaciones de una aerolínea del mundo real en específico. Un miembro de Fly Ecuador Virtual tiene toda la libertad de volar cualquier aeronave que opere en el espacio aéreo ecuatoriano real, en cualquier ruta, sea esta nacional o internacional, IFR o VFR, aeronaves monomotor, multimotor o helicópteros. Todo esto con el objetivo de expandir las operaciones virtuales dentro del espacio aéreo ecuatoriano, creando una comunidad en la que se compartan conocimientos y experiencias que beneficien a todos sus integrantes.

El crecimiento de Fly Ecuador Virtual depende de la participación conjunta de todos sus miembros, por este motivo se incentiva la participación en línea a través de los diferentes medios descritos más adelante en este sitio web.

 ESTADÍSTICAS

Pilotos 77
Aeronaves en flota 0
Rutas 0
Horas totales: 10507.12
Vuelos totales 1667
Vuelos Regular 0
Vuelos Charter 1714
% Vuelos Regular 0.00 %

 ÚLTIMOS VUELOS

IndicativoPilotoOrigenDestinoFechaTiempo de vuelo
ECU024Arturo Carvajal  SEQM  SEGU 2018-08-12 0.57
ECU018Luis Heredia  SEGU  SEQM 2018-08-12 0.59
ECU017Jorge Najera  SEGU  SEQM 2018-07-21 0.58
ECU017Jorge Najera  SEQM  SEGU 2018-07-21 0.67
ECU024Arturo Carvajal  SEQM  SEGU 2018-07-15 0.56

 NUEVOS PILOTOS

 Consultar METAR

METAR
SEGU - José Joaquín de Olmedo International Airport, Guayaquil, ECU
Distance from station: N 0mi, 0km
Updated: Sun, 19-Aug-2018 8:00pm PDT
Clear
Clear
 Wind from SW
Wind: SW 15 mph , 24 km/h
Temperature: 73°F , 23°C
Dew Point: 64°F , 18°C
Humidity: 74%
Barometer: 29.88 inHg , 1012 hPa
Summary: Clear
Visibility: greater than 7 miles , 10 km
2018/08/20 03:00 SEGU 200300Z 22013KT CAVOK 23/18 Q1012 NOSIG RMK A2989
 
SEQM - Aeropuerto Internacional Mariscal Sucre, ECU
Distance from station: NE 120mi, 200km
Updated: Sun, 19-Aug-2018 8:00pm PDT
Clear
Clear
 Wind from ENE
Wind: ENE 6 mph , 9 km/h
Temperature: 54°F , 12°C
Dew Point: 45°F , 7°C
Humidity: 72%
Barometer: 30.3 inHg , 1026 hPa
Summary: Clear
Visibility: greater than 7 miles , 10 km
2018/08/20 03:00 SEQM 200300Z 07005KT CAVOK 12/07 Q1026 NOSIG RMK A3032
 
SECU - Mariscal Lamar Airpor, ECU
Distance from station: ENE 80mi, 120km
Updated: Sun, 19-Aug-2018 8:00pm PDT

 Wind from ENE
Wind: ENE 6 mph , 9 km/h
2018/08/20 03:00 SECU 200300Z AUTO 07005KT ////NDV NCD 13/09 Q1028
 
SELT - Cotopaxi International Airport, ECU
Distance from station: NW 21mi, 34km
Updated: Sun, 19-Aug-2018 8:00pm PDT
Few Clouds
Few Clouds
 Wind from W
Wind: W 2 mph , 4 km/h
Temperature: 46°F , 8°C
Dew Point: 39°F , 4°C
Humidity: 76%
Barometer: 30.47 inHg , 1032 hPa
Clouds: Few Clouds
Visibility: 6 miles , 10 km
Cloud details: Few Clouds 3000 ft
2018/08/20 03:00 SELT 200300Z 27002KT 9999 FEW030 08/04 Q1032
 
SEMT - Eloy Alfaro International Airport, ECU
Distance from station: SSE 70mi, 100km
Updated: Mon, 20-Aug-2018 1:00pm PDT
Mostly Cloudy
Mostly Cloudy
 Wind from SSW
Wind: SSW 10 mph , 17 km/h
Temperature: 72°F , 22°C
Dew Point: 68°F , 20°C
Humidity: 88%
Barometer: 29.85 inHg , 1011 hPa
Clouds: Mostly Cloudy
Visibility: 6 miles , 10 km
Cloud details: Mostly Cloudy 2300 ft
2018/08/20 20:00 SEMT 202000Z 21009KT 9999 BKN023 22/20 Q1011 RMK A2989

Metar display script from Saratoga-Weather.org

 NOTAMS

NOTAMFecha



Fly Ecuador Virtual 2018 | System by VAM